sensor_id;sensor_type;location;lat;lon;timestamp;pressure;altitude;pressure_sealevel;temperature;humidity
70930;BME280;58588;48.102;19.682;2023-01-29T00:02:32;100118.41;;;-1.62;100.00
70930;BME280;58588;48.102;19.682;2023-01-29T00:05:34;100121.25;;;-1.65;100.00
70930;BME280;58588;48.102;19.682;2023-01-29T00:08:36;100129.84;;;-1.62;100.00
70930;BME280;58588;48.102;19.682;2023-01-29T00:11:39;100120.88;;;-1.59;100.00
70930;BME280;58588;48.102;19.682;2023-01-29T00:14:41;100126.16;;;-1.59;100.00
70930;BME280;58588;48.102;19.682;2023-01-29T00:17:45;100132.50;;;-1.62;100.00
70930;BME280;58588;48.102;19.682;2023-01-29T00:20:47;100130.88;;;-1.64;100.00
70930;BME280;58588;48.102;19.682;2023-01-29T00:23:49;100126.06;;;-1.72;100.00
70930;BME280;58588;48.102;19.682;2023-01-29T00:26:52;100131.94;;;-1.67;100.00
70930;BME280;58588;48.102;19.682;2023-01-29T00:29:54;100134.75;;;-1.70;100.00
70930;BME280;58588;48.102;19.682;2023-01-29T00:33:12;100136.91;;;-1.62;100.00
70930;BME280;58588;48.102;19.682;2023-01-29T00:36:16;100135.53;;;-1.53;100.00
70930;BME280;58588;48.102;19.682;2023-01-29T00:39:18;100139.00;;;-1.53;100.00
70930;BME280;58588;48.102;19.682;2023-01-29T00:42:23;100137.88;;;-1.49;100.00
70930;BME280;58588;48.102;19.682;2023-01-29T00:45:43;100141.97;;;-1.43;100.00
70930;BME280;58588;48.102;19.682;2023-01-29T00:48:46;100147.72;;;-1.37;100.00
70930;BME280;58588;48.102;19.682;2023-01-29T00:51:48;100144.59;;;-1.43;100.00
70930;BME280;58588;48.102;19.682;2023-01-29T00:55:05;100148.47;;;-1.35;100.00
70930;BME280;58588;48.102;19.682;2023-01-29T00:58:07;100149.22;;;-1.32;100.00
70930;BME280;58588;48.102;19.682;2023-01-29T01:01:09;100150.25;;;-1.35;100.00
70930;BME280;58588;48.102;19.682;2023-01-29T01:04:13;100151.00;;;-1.33;100.00
70930;BME280;58588;48.102;19.682;2023-01-29T01:07:14;100155.44;;;-1.33;100.00
70930;BME280;58588;48.102;19.682;2023-01-29T01:10:18;100157.44;;;-1.37;100.00
70930;BME280;58588;48.102;19.682;2023-01-29T01:13:23;100158.47;;;-1.40;100.00
70930;BME280;58588;48.102;19.682;2023-01-29T01:16:25;100167.06;;;-1.36;100.00
70930;BME280;58588;48.102;19.682;2023-01-29T01:19:29;100164.69;;;-1.41;100.00
70930;BME280;58588;48.102;19.682;2023-01-29T01:22:31;100159.63;;;-1.44;100.00
70930;BME280;58588;48.102;19.682;2023-01-29T01:25:33;100161.94;;;-1.39;100.00
70930;BME280;58588;48.102;19.682;2023-01-29T01:28:35;100163.19;;;-1.30;100.00
70930;BME280;58588;48.102;19.682;2023-01-29T01:31:37;100163.59;;;-1.37;100.00
70930;BME280;58588;48.102;19.682;2023-01-29T01:34:40;100163.09;;;-1.43;100.00
70930;BME280;58588;48.102;19.682;2023-01-29T01:37:44;100164.97;;;-1.45;100.00
70930;BME280;58588;48.102;19.682;2023-01-29T01:40:46;100164.59;;;-1.39;100.00
70930;BME280;58588;48.102;19.682;2023-01-29T01:43:50;100167.81;;;-1.48;100.00
70930;BME280;58588;48.102;19.682;2023-01-29T01:46:52;100172.44;;;-1.52;100.00
70930;BME280;58588;48.102;19.682;2023-01-29T01:50:00;100187.19;;;-1.48;100.00
70930;BME280;58588;48.102;19.682;2023-01-29T01:53:08;100185.09;;;-1.43;100.00
70930;BME280;58588;48.102;19.682;2023-01-29T01:56:16;100182.00;;;-1.35;100.00
70930;BME280;58588;48.102;19.682;2023-01-29T01:59:21;100176.81;;;-1.37;100.00
70930;BME280;58588;48.102;19.682;2023-01-29T02:02:24;100175.59;;;-1.31;100.00
70930;BME280;58588;48.102;19.682;2023-01-29T02:05:46;100176.31;;;-1.29;100.00
70930;BME280;58588;48.102;19.682;2023-01-29T02:09:08;100183.88;;;-1.23;100.00
70930;BME280;58588;48.102;19.682;2023-01-29T02:12:29;100181.44;;;-1.26;100.00
70930;BME280;58588;48.102;19.682;2023-01-29T02:15:31;100186.25;;;-1.18;100.00
70930;BME280;58588;48.102;19.682;2023-01-29T02:18:33;100193.03;;;-1.14;100.00
70930;BME280;58588;48.102;19.682;2023-01-29T02:22:05;100196.94;;;-1.05;100.00
70930;BME280;58588;48.102;19.682;2023-01-29T02:25:28;100197.28;;;-0.97;100.00
70930;BME280;58588;48.102;19.682;2023-01-29T02:28:44;100202.78;;;-1.00;100.00
70930;BME280;58588;48.102;19.682;2023-01-29T02:31:56;100198.63;;;-1.04;100.00
70930;BME280;58588;48.102;19.682;2023-01-29T02:35:10;100189.47;;;-1.13;100.00
70930;BME280;58588;48.102;19.682;2023-01-29T02:38:37;100200.44;;;-1.19;100.00
70930;BME280;58588;48.102;19.682;2023-01-29T02:41:44;100194.94;;;-1.16;100.00
70930;BME280;58588;48.102;19.682;2023-01-29T02:44:54;100195.22;;;-1.21;100.00
70930;BME280;58588;48.102;19.682;2023-01-29T02:47:59;100192.09;;;-1.27;100.00
70930;BME280;58588;48.102;19.682;2023-01-29T02:51:04;100209.38;;;-1.22;100.00
70930;BME280;58588;48.102;19.682;2023-01-29T02:54:13;100210.53;;;-1.12;100.00
70930;BME280;58588;48.102;19.682;2023-01-29T02:57:20;100205.13;;;-1.10;100.00
70930;BME280;58588;48.102;19.682;2023-01-29T03:00:28;100207.13;;;-0.99;100.00
70930;BME280;58588;48.102;19.682;2023-01-29T03:03:33;100215.44;;;-0.91;100.00
70930;BME280;58588;48.102;19.682;2023-01-29T03:06:40;100215.16;;;-1.01;100.00
70930;BME280;58588;48.102;19.682;2023-01-29T03:09:46;100215.34;;;-1.04;100.00
70930;BME280;58588;48.102;19.682;2023-01-29T03:12:53;100223.69;;;-0.96;100.00
70930;BME280;58588;48.102;19.682;2023-01-29T03:16:00;100206.91;;;-0.96;100.00
70930;BME280;58588;48.102;19.682;2023-01-29T03:19:08;100215.25;;;-1.02;100.00
70930;BME280;58588;48.102;19.682;2023-01-29T03:22:13;100213.66;;;-1.05;100.00
70930;BME280;58588;48.102;19.682;2023-01-29T03:25:22;100213.34;;;-0.86;100.00
70930;BME280;58588;48.102;19.682;2023-01-29T03:28:44;100219.03;;;-0.78;100.00
70930;BME280;58588;48.102;19.682;2023-01-29T03:36:05;100216.94;;;-0.73;100.00
70930;BME280;58588;48.102;19.682;2023-01-29T03:39:10;100216.84;;;-0.71;100.00
70930;BME280;58588;48.102;19.682;2023-01-29T03:42:18;100216.41;;;-0.78;100.00
70930;BME280;58588;48.102;19.682;2023-01-29T03:45:29;100226.41;;;-0.83;100.00
70930;BME280;58588;48.102;19.682;2023-01-29T03:48:37;100227.44;;;-0.86;100.00
70930;BME280;58588;48.102;19.682;2023-01-29T03:51:52;100218.66;;;-0.72;100.00
70930;BME280;58588;48.102;19.682;2023-01-29T03:55:01;100228.38;;;-0.72;100.00
70930;BME280;58588;48.102;19.682;2023-01-29T03:58:13;100225.25;;;-0.79;100.00
70930;BME280;58588;48.102;19.682;2023-01-29T04:01:24;100220.28;;;-0.84;100.00
70930;BME280;58588;48.102;19.682;2023-01-29T04:04:32;100214.47;;;-0.90;100.00
70930;BME280;58588;48.102;19.682;2023-01-29T04:07:39;100219.56;;;-0.73;100.00
70930;BME280;58588;48.102;19.682;2023-01-29T04:10:44;100212.75;;;-0.63;100.00
70930;BME280;58588;48.102;19.682;2023-01-29T04:13:49;100214.19;;;-0.57;100.00
70930;BME280;58588;48.102;19.682;2023-01-29T04:16:54;100211.69;;;-0.60;100.00
70930;BME280;58588;48.102;19.682;2023-01-29T04:19:59;100231.88;;;-0.58;100.00
70930;BME280;58588;48.102;19.682;2023-01-29T04:23:05;100225.34;;;-0.66;100.00
70930;BME280;58588;48.102;19.682;2023-01-29T04:26:23;100220.03;;;-0.66;100.00
70930;BME280;58588;48.102;19.682;2023-01-29T04:29:39;100218.50;;;-0.56;100.00
70930;BME280;58588;48.102;19.682;2023-01-29T04:32:53;100219.66;;;-0.60;100.00
70930;BME280;58588;48.102;19.682;2023-01-29T04:36:06;100208.66;;;-0.54;100.00
70930;BME280;58588;48.102;19.682;2023-01-29T04:39:19;100211.41;;;-0.41;100.00
70930;BME280;58588;48.102;19.682;2023-01-29T04:42:29;100202.06;;;-0.47;100.00
70930;BME280;58588;48.102;19.682;2023-01-29T04:45:39;100195.91;;;-0.47;100.00
70930;BME280;58588;48.102;19.682;2023-01-29T04:49:01;100203.25;;;-0.38;100.00
70930;BME280;58588;48.102;19.682;2023-01-29T04:52:11;100199.09;;;-0.42;100.00
70930;BME280;58588;48.102;19.682;2023-01-29T04:55:20;100197.72;;;-0.48;100.00
70930;BME280;58588;48.102;19.682;2023-01-29T04:58:30;100197.22;;;-0.40;100.00
70930;BME280;58588;48.102;19.682;2023-01-29T05:01:34;100187.91;;;-0.33;100.00
70930;BME280;58588;48.102;19.682;2023-01-29T05:04:39;100182.03;;;-0.24;100.00
70930;BME280;58588;48.102;19.682;2023-01-29T05:07:42;100193.88;;;-0.30;100.00
70930;BME280;58588;48.102;19.682;2023-01-29T05:10:47;100179.88;;;-0.32;100.00
70930;BME280;58588;48.102;19.682;2023-01-29T05:13:50;100182.88;;;-0.23;100.00
70930;BME280;58588;48.102;19.682;2023-01-29T05:16:55;100185.66;;;-0.12;100.00
70930;BME280;58588;48.102;19.682;2023-01-29T05:19:58;100172.72;;;-0.17;100.00
70930;BME280;58588;48.102;19.682;2023-01-29T05:23:00;100182.91;;;-0.11;100.00
70930;BME280;58588;48.102;19.682;2023-01-29T05:26:04;100187.56;;;-0.14;100.00
70930;BME280;58588;48.102;19.682;2023-01-29T05:29:07;100194.09;;;-0.20;100.00
70930;BME280;58588;48.102;19.682;2023-01-29T05:32:08;100190.91;;;-0.25;100.00
70930;BME280;58588;48.102;19.682;2023-01-29T05:35:10;100194.09;;;-0.20;100.00
70930;BME280;58588;48.102;19.682;2023-01-29T05:38:12;100191.34;;;-0.18;100.00
70930;BME280;58588;48.102;19.682;2023-01-29T05:41:16;100194.09;;;-0.20;100.00
70930;BME280;58588;48.102;19.682;2023-01-29T05:44:18;100184.75;;;-0.25;100.00
70930;BME280;58588;48.102;19.682;2023-01-29T05:47:20;100193.25;;;-0.20;100.00
70930;BME280;58588;48.102;19.682;2023-01-29T05:50:23;100196.56;;;-0.17;100.00
70930;BME280;58588;48.102;19.682;2023-01-29T05:53:25;100207.41;;;-0.34;100.00
70930;BME280;58588;48.102;19.682;2023-01-29T05:56:29;100215.16;;;-0.31;100.00
70930;BME280;58588;48.102;19.682;2023-01-29T05:59:31;100217.84;;;-0.18;100.00
70930;BME280;58588;48.102;19.682;2023-01-29T06:02:33;100208.41;;;-0.22;100.00
70930;BME280;58588;48.102;19.682;2023-01-29T06:05:37;100214.34;;;-0.19;100.00
70930;BME280;58588;48.102;19.682;2023-01-29T06:08:39;100227.81;;;-0.22;100.00
70930;BME280;58588;48.102;19.682;2023-01-29T06:11:42;100227.53;;;-0.17;100.00
70930;BME280;58588;48.102;19.682;2023-01-29T06:14:44;100239.19;;;-0.34;100.00
70930;BME280;58588;48.102;19.682;2023-01-29T06:17:46;100250.28;;;-0.42;100.00
70930;BME280;58588;48.102;19.682;2023-01-29T06:20:48;100255.97;;;-0.48;100.00
70930;BME280;58588;48.102;19.682;2023-01-29T06:23:51;100259.84;;;-0.53;100.00
70930;BME280;58588;48.102;19.682;2023-01-29T06:26:55;100254.97;;;-0.33;100.00
70930;BME280;58588;48.102;19.682;2023-01-29T06:29:57;100254.31;;;-0.22;100.00
70930;BME280;58588;48.102;19.682;2023-01-29T06:32:59;100251.94;;;-0.27;100.00
70930;BME280;58588;48.102;19.682;2023-01-29T06:36:03;100262.81;;;-0.17;100.00
70930;BME280;58588;48.102;19.682;2023-01-29T06:39:05;100257.19;;;-0.12;100.00
70930;BME280;58588;48.102;19.682;2023-01-29T06:42:09;100254.09;;;-0.19;100.00
70930;BME280;58588;48.102;19.682;2023-01-29T06:45:11;100255.09;;;-0.07;100.00
70930;BME280;58588;48.102;19.682;2023-01-29T06:48:13;100253.56;;;0.03;100.00
70930;BME280;58588;48.102;19.682;2023-01-29T06:51:15;100255.38;;;0.03;100.00
70930;BME280;58588;48.102;19.682;2023-01-29T06:54:17;100253.41;;;-0.08;100.00
70930;BME280;58588;48.102;19.682;2023-01-29T06:57:21;100251.19;;;-0.02;100.00
70930;BME280;58588;48.102;19.682;2023-01-29T07:00:23;100242.25;;;-0.13;100.00
70930;BME280;58588;48.102;19.682;2023-01-29T07:03:25;100235.88;;;-0.23;100.00
70930;BME280;58588;48.102;19.682;2023-01-29T07:06:28;100231.00;;;-0.17;100.00
70930;BME280;58588;48.102;19.682;2023-01-29T07:09:30;100223.63;;;-0.12;100.00
70930;BME280;58588;48.102;19.682;2023-01-29T07:12:34;100225.59;;;-0.15;100.00
70930;BME280;58588;48.102;19.682;2023-01-29T07:15:36;100220.03;;;-0.25;100.00
70930;BME280;58588;48.102;19.682;2023-01-29T07:18:38;100230.91;;;-0.15;100.00
70930;BME280;58588;48.102;19.682;2023-01-29T07:21:40;100228.63;;;0.06;100.00
70930;BME280;58588;48.102;19.682;2023-01-29T07:24:42;100243.69;;;0.05;100.00
70930;BME280;58588;48.102;19.682;2023-01-29T07:27:46;100234.59;;;0.09;100.00
70930;BME280;58588;48.102;19.682;2023-01-29T07:30:49;100230.72;;;0.28;100.00
70930;BME280;58588;48.102;19.682;2023-01-29T07:33:51;100230.22;;;0.35;100.00
70930;BME280;58588;48.102;19.682;2023-01-29T07:36:53;100233.41;;;0.40;100.00
70930;BME280;58588;48.102;19.682;2023-01-29T07:39:56;100239.91;;;0.49;100.00
70930;BME280;58588;48.102;19.682;2023-01-29T07:43:00;100238.22;;;0.61;100.00
70930;BME280;58588;48.102;19.682;2023-01-29T07:46:05;100243.50;;;0.48;100.00
70930;BME280;58588;48.102;19.682;2023-01-29T07:49:07;100243.84;;;0.56;100.00
70930;BME280;58588;48.102;19.682;2023-01-29T07:52:09;100239.38;;;0.57;100.00
70930;BME280;58588;48.102;19.682;2023-01-29T07:55:11;100240.03;;;0.60;100.00
70930;BME280;58588;48.102;19.682;2023-01-29T07:58:15;100235.47;;;0.75;100.00
70930;BME280;58588;48.102;19.682;2023-01-29T08:01:17;100248.31;;;0.81;100.00
70930;BME280;58588;48.102;19.682;2023-01-29T08:04:19;100250.78;;;0.84;100.00
70930;BME280;58588;48.102;19.682;2023-01-29T08:07:21;100250.78;;;0.84;100.00
70930;BME280;58588;48.102;19.682;2023-01-29T08:10:23;100258.50;;;0.74;100.00
70930;BME280;58588;48.102;19.682;2023-01-29T08:13:27;100260.44;;;0.85;100.00
70930;BME280;58588;48.102;19.682;2023-01-29T08:16:29;100269.25;;;0.73;100.00
70930;BME280;58588;48.102;19.682;2023-01-29T08:19:31;100262.31;;;0.83;100.00
70930;BME280;58588;48.102;19.682;2023-01-29T08:22:33;100264.06;;;0.84;100.00
70930;BME280;58588;48.102;19.682;2023-01-29T08:25:35;100270.72;;;0.90;100.00
70930;BME280;58588;48.102;19.682;2023-01-29T08:28:39;100268.81;;;1.04;100.00
70930;BME280;58588;48.102;19.682;2023-01-29T08:31:41;100276.78;;;1.17;100.00
70930;BME280;58588;48.102;19.682;2023-01-29T08:34:43;100275.41;;;1.12;100.00
70930;BME280;58588;48.102;19.682;2023-01-29T08:37:51;100270.63;;;1.17;100.00
70930;BME280;58588;48.102;19.682;2023-01-29T08:40:53;100267.25;;;1.15;100.00
70930;BME280;58588;48.102;19.682;2023-01-29T08:43:57;100261.69;;;1.30;100.00
70930;BME280;58588;48.102;19.682;2023-01-29T08:47:00;100273.59;;;0.99;100.00
70930;BME280;58588;48.102;19.682;2023-01-29T08:50:03;100272.75;;;1.12;100.00
70930;BME280;58588;48.102;19.682;2023-01-29T08:53:07;100267.88;;;1.05;100.00
70930;BME280;58588;48.102;19.682;2023-01-29T08:56:09;100263.22;;;0.96;100.00
70930;BME280;58588;48.102;19.682;2023-01-29T08:59:13;100264.91;;;1.10;100.00
70930;BME280;58588;48.102;19.682;2023-01-29T09:02:15;100265.00;;;1.34;100.00
70930;BME280;58588;48.102;19.682;2023-01-29T09:05:17;100258.41;;;1.40;100.00
70930;BME280;58588;48.102;19.682;2023-01-29T09:08:19;100260.81;;;1.43;100.00
70930;BME280;58588;48.102;19.682;2023-01-29T09:11:21;100261.91;;;1.40;100.00
70930;BME280;58588;48.102;19.682;2023-01-29T09:14:24;100267.38;;;1.50;100.00
70930;BME280;58588;48.102;19.682;2023-01-29T09:17:27;100265.84;;;1.22;100.00
70930;BME280;58588;48.102;19.682;2023-01-29T09:20:29;100282.16;;;1.54;100.00
70930;BME280;58588;48.102;19.682;2023-01-29T09:23:31;100282.81;;;1.57;100.00
70930;BME280;58588;48.102;19.682;2023-01-29T09:26:34;100279.06;;;1.60;100.00
70930;BME280;58588;48.102;19.682;2023-01-29T09:29:38;100290.22;;;1.65;100.00
70930;BME280;58588;48.102;19.682;2023-01-29T09:32:40;100287.38;;;1.55;100.00
70930;BME280;58588;48.102;19.682;2023-01-29T09:35:42;100288.66;;;1.37;100.00
70930;BME280;58588;48.102;19.682;2023-01-29T09:38:45;100286.44;;;1.31;100.00
70930;BME280;58588;48.102;19.682;2023-01-29T09:41:53;100289.84;;;1.46;100.00
70930;BME280;58588;48.102;19.682;2023-01-29T09:45:03;100288.03;;;1.46;100.00
70930;BME280;58588;48.102;19.682;2023-01-29T09:48:09;100297.34;;;1.65;100.00
70930;BME280;58588;48.102;19.682;2023-01-29T09:51:19;100290.28;;;1.89;100.00
70930;BME280;58588;48.102;19.682;2023-01-29T09:54:28;100298.06;;;1.79;100.00
70930;BME280;58588;48.102;19.682;2023-01-29T09:57:37;100291.53;;;1.96;100.00
70930;BME280;58588;48.102;19.682;2023-01-29T10:00:50;100288.47;;;2.13;100.00
70930;BME280;58588;48.102;19.682;2023-01-29T10:04:08;100298.84;;;2.05;100.00
70930;BME280;58588;48.102;19.682;2023-01-29T10:10:48;100306.81;;;1.56;100.00
70930;BME280;58588;48.102;19.682;2023-01-29T10:13:59;100311.59;;;1.64;100.00
70930;BME280;58588;48.102;19.682;2023-01-29T10:17:15;100311.97;;;1.21;100.00
70930;BME280;58588;48.102;19.682;2023-01-29T10:20:49;100301.41;;;1.57;100.00
70930;BME280;58588;48.102;19.682;2023-01-29T10:24:04;100303.66;;;1.38;100.00
70930;BME280;58588;48.102;19.682;2023-01-29T10:27:12;100296.63;;;1.63;100.00
70930;BME280;58588;48.102;19.682;2023-01-29T10:30:25;100276.56;;;1.46;100.00
70930;BME280;58588;48.102;19.682;2023-01-29T10:33:33;100262.03;;;1.75;100.00
70930;BME280;58588;48.102;19.682;2023-01-29T10:36:41;100273.97;;;1.70;100.00
70930;BME280;58588;48.102;19.682;2023-01-29T10:39:44;100273.13;;;1.69;100.00
70930;BME280;58588;48.102;19.682;2023-01-29T10:42:51;100277.53;;;1.81;100.00
70930;BME280;58588;48.102;19.682;2023-01-29T10:46:01;100282.75;;;1.83;100.00
70930;BME280;58588;48.102;19.682;2023-01-29T10:49:20;100283.22;;;1.64;100.00
70930;BME280;58588;48.102;19.682;2023-01-29T10:52:35;100279.28;;;1.70;100.00
70930;BME280;58588;48.102;19.682;2023-01-29T10:55:45;100257.97;;;1.46;100.00
70930;BME280;58588;48.102;19.682;2023-01-29T10:58:54;100255.06;;;1.49;100.00
70930;BME280;58588;48.102;19.682;2023-01-29T11:01:57;100259.69;;;1.34;100.00
70930;BME280;58588;48.102;19.682;2023-01-29T11:05:01;100254.47;;;1.20;100.00
70930;BME280;58588;48.102;19.682;2023-01-29T11:08:06;100247.03;;;1.12;100.00
70930;BME280;58588;48.102;19.682;2023-01-29T11:11:12;100243.50;;;1.37;100.00
70930;BME280;58588;48.102;19.682;2023-01-29T11:14:21;100233.22;;;1.45;100.00
70930;BME280;58588;48.102;19.682;2023-01-29T11:17:25;100219.00;;;1.21;100.00
70930;BME280;58588;48.102;19.682;2023-01-29T11:20:29;100210.81;;;1.24;100.00
70930;BME280;58588;48.102;19.682;2023-01-29T11:23:32;100211.06;;;1.57;100.00
70930;BME280;58588;48.102;19.682;2023-01-29T11:26:37;100195.97;;;1.58;100.00
70930;BME280;58588;48.102;19.682;2023-01-29T11:29:42;100189.34;;;1.40;100.00
70930;BME280;58588;48.102;19.682;2023-01-29T11:33:07;100189.34;;;1.40;100.00
70930;BME280;58588;48.102;19.682;2023-01-29T11:36:30;100185.03;;;1.63;100.00
70930;BME280;58588;48.102;19.682;2023-01-29T11:39:44;100188.44;;;1.52;100.00
70930;BME280;58588;48.102;19.682;2023-01-29T11:42:48;100188.25;;;1.42;100.00
70930;BME280;58588;48.102;19.682;2023-01-29T11:45:55;100179.97;;;1.47;100.00
70930;BME280;58588;48.102;19.682;2023-01-29T11:49:02;100170.53;;;1.30;100.00
70930;BME280;58588;48.102;19.682;2023-01-29T11:52:33;100173.03;;;1.20;100.00
70930;BME280;58588;48.102;19.682;2023-01-29T11:55:37;100174.88;;;1.31;100.00
70930;BME280;58588;48.102;19.682;2023-01-29T11:58:41;100166.19;;;1.29;100.00
70930;BME280;58588;48.102;19.682;2023-01-29T12:01:43;100170.44;;;1.31;100.00
70930;BME280;58588;48.102;19.682;2023-01-29T12:04:46;100168.66;;;1.32;100.00
70930;BME280;58588;48.102;19.682;2023-01-29T12:07:52;100171.09;;;1.22;100.00
70930;BME280;58588;48.102;19.682;2023-01-29T12:11:07;100172.69;;;1.25;100.00
70930;BME280;58588;48.102;19.682;2023-01-29T12:14:23;100176.41;;;1.22;100.00
70930;BME280;58588;48.102;19.682;2023-01-29T12:17:28;100174.63;;;1.10;100.00
70930;BME280;58588;48.102;19.682;2023-01-29T12:20:34;100163.59;;;1.03;100.00
70930;BME280;58588;48.102;19.682;2023-01-29T12:23:43;100159.03;;;0.93;100.00
70930;BME280;58588;48.102;19.682;2023-01-29T12:26:50;100154.16;;;0.87;100.00
70930;BME280;58588;48.102;19.682;2023-01-29T12:29:59;100150.31;;;1.03;100.00
70930;BME280;58588;48.102;19.682;2023-01-29T12:33:10;100139.78;;;1.15;100.00
70930;BME280;58588;48.102;19.682;2023-01-29T12:36:20;100147.34;;;1.08;100.00
70930;BME280;58588;48.102;19.682;2023-01-29T12:39:25;100146.41;;;0.96;100.00
70930;BME280;58588;48.102;19.682;2023-01-29T12:42:27;100131.50;;;1.06;100.00
70930;BME280;58588;48.102;19.682;2023-01-29T12:45:31;100129.06;;;1.16;100.00
70930;BME280;58588;48.102;19.682;2023-01-29T12:48:36;100126.06;;;1.21;100.00
70930;BME280;58588;48.102;19.682;2023-01-29T12:51:46;100114.03;;;1.28;100.00
70930;BME280;58588;48.102;19.682;2023-01-29T12:54:55;100115.06;;;1.14;100.00
70930;BME280;58588;48.102;19.682;2023-01-29T12:58:00;100106.97;;;1.16;100.00
70930;BME280;58588;48.102;19.682;2023-01-29T13:01:07;100097.75;;;1.09;100.00
70930;BME280;58588;48.102;19.682;2023-01-29T13:04:16;100100.28;;;1.10;100.00
70930;BME280;58588;48.102;19.682;2023-01-29T13:07:23;100096.38;;;1.03;100.00
70930;BME280;58588;48.102;19.682;2023-01-29T13:10:31;100098.28;;;1.01;100.00
70930;BME280;58588;48.102;19.682;2023-01-29T13:13:37;100107.72;;;1.05;100.00
70930;BME280;58588;48.102;19.682;2023-01-29T13:16:56;100101.06;;;0.99;100.00
70930;BME280;58588;48.102;19.682;2023-01-29T13:20:10;100103.31;;;0.93;100.00
70930;BME280;58588;48.102;19.682;2023-01-29T13:23:17;100118.38;;;0.92;100.00
70930;BME280;58588;48.102;19.682;2023-01-29T13:26:23;100124.34;;;0.70;100.00
70930;BME280;58588;48.102;19.682;2023-01-29T13:29:28;100112.13;;;0.93;100.00
70930;BME280;58588;48.102;19.682;2023-01-29T13:32:32;100101.03;;;1.12;100.00
70930;BME280;58588;48.102;19.682;2023-01-29T13:35:37;100108.59;;;1.05;100.00
70930;BME280;58588;48.102;19.682;2023-01-29T13:38:41;100108.72;;;0.91;100.00
70930;BME280;58588;48.102;19.682;2023-01-29T13:41:46;100105.22;;;0.91;97.88
70930;BME280;58588;48.102;19.682;2023-01-29T13:44:52;100109.06;;;0.87;100.00
70930;BME280;58588;48.102;19.682;2023-01-29T13:48:08;100103.84;;;0.98;100.00
70930;BME280;58588;48.102;19.682;2023-01-29T13:51:20;100109.31;;;1.20;100.00
70930;BME280;58588;48.102;19.682;2023-01-29T13:54:55;100102.94;;;1.10;100.00
70930;BME280;58588;48.102;19.682;2023-01-29T14:02:16;100096.56;;;1.13;99.20
70930;BME280;58588;48.102;19.682;2023-01-29T14:05:55;100087.41;;;0.80;100.00
70930;BME280;58588;48.102;19.682;2023-01-29T14:08:58;100098.28;;;1.01;100.00
70930;BME280;58588;48.102;19.682;2023-01-29T14:12:01;100087.78;;;0.99;100.00
70930;BME280;58588;48.102;19.682;2023-01-29T14:18:35;100080.22;;;1.06;100.00
70930;BME280;58588;48.102;19.682;2023-01-29T14:21:40;100083.81;;;1.18;100.00
70930;BME280;58588;48.102;19.682;2023-01-29T14:24:53;100090.72;;;1.20;96.56
70930;BME280;58588;48.102;19.682;2023-01-29T14:27:57;100090.34;;;1.25;94.65
70930;BME280;58588;48.102;19.682;2023-01-29T14:31:00;100093.53;;;1.30;100.00
70930;BME280;58588;48.102;19.682;2023-01-29T14:34:11;100094.94;;;1.23;96.25
70930;BME280;58588;48.102;19.682;2023-01-29T14:37:20;100093.53;;;1.30;95.01
70930;BME280;58588;48.102;19.682;2023-01-29T14:40:25;100094.13;;;1.10;98.62
70930;BME280;58588;48.102;19.682;2023-01-29T14:43:29;100096.03;;;1.20;100.00
70930;BME280;58588;48.102;19.682;2023-01-29T14:46:42;100091.47;;;1.10;100.00
70930;BME280;58588;48.102;19.682;2023-01-29T14:49:50;100086.19;;;1.10;100.00
70930;BME280;58588;48.102;19.682;2023-01-29T14:52:53;100092.28;;;1.23;100.00
70930;BME280;58588;48.102;19.682;2023-01-29T14:56:02;100090.31;;;1.01;100.00
70930;BME280;58588;48.102;19.682;2023-01-29T14:59:13;100098.13;;;0.91;98.32
70930;BME280;58588;48.102;19.682;2023-01-29T15:02:19;100100.56;;;0.82;100.00
70930;BME280;58588;48.102;19.682;2023-01-29T15:05:28;100106.31;;;0.63;100.00
70930;BME280;58588;48.102;19.682;2023-01-29T15:08:39;100087.44;;;0.67;100.00
70930;BME280;58588;48.102;19.682;2023-01-29T15:11:52;100094.97;;;0.73;100.00
70930;BME280;58588;48.102;19.682;2023-01-29T15:15:04;100098.41;;;0.99;100.00
70930;BME280;58588;48.102;19.682;2023-01-29T15:18:13;100096.38;;;1.03;100.00
70930;BME280;58588;48.102;19.682;2023-01-29T15:21:18;100101.72;;;0.77;100.00
70930;BME280;58588;48.102;19.682;2023-01-29T15:24:27;100108.22;;;0.73;100.00
70930;BME280;58588;48.102;19.682;2023-01-29T15:27:29;100104.94;;;0.57;100.00
70930;BME280;58588;48.102;19.682;2023-01-29T15:30:33;100100.28;;;0.61;100.00
70930;BME280;58588;48.102;19.682;2023-01-29T15:33:36;100102.59;;;0.52;100.00
70930;BME280;58588;48.102;19.682;2023-01-29T15:36:40;100098.78;;;0.57;100.00
70930;BME280;58588;48.102;19.682;2023-01-29T15:39:42;100095.19;;;0.58;100.00
70930;BME280;58588;48.102;19.682;2023-01-29T15:42:46;100100.38;;;0.59;100.00
70930;BME280;58588;48.102;19.682;2023-01-29T15:45:48;100092.22;;;0.62;100.00
70930;BME280;58588;48.102;19.682;2023-01-29T15:48:52;100096.69;;;0.36;100.00
70930;BME280;58588;48.102;19.682;2023-01-29T15:51:59;100100.50;;;0.45;100.00
70930;BME280;58588;48.102;19.682;2023-01-29T15:55:04;100108.47;;;0.45;100.00
70930;BME280;58588;48.102;19.682;2023-01-29T15:58:14;100106.75;;;0.44;100.00
70930;BME280;58588;48.102;19.682;2023-01-29T16:01:17;100103.47;;;0.40;100.00
70930;BME280;58588;48.102;19.682;2023-01-29T16:04:21;100104.84;;;0.33;100.00
70930;BME280;58588;48.102;19.682;2023-01-29T16:07:28;100108.66;;;0.29;100.00
70930;BME280;58588;48.102;19.682;2023-01-29T16:10:31;100115.22;;;0.23;100.00
70930;BME280;58588;48.102;19.682;2023-01-29T16:13:36;100122.22;;;0.12;100.00